createdAt,value
2018-10-17T00:02:21.203Z,9.95
2018-10-17T00:04:50.357Z,11.20
2018-10-17T00:07:19.354Z,12.95
2018-10-17T00:09:48.322Z,14.23
2018-10-17T00:12:17.261Z,15.03
2018-10-17T00:14:46.218Z,15.68
2018-10-17T00:17:15.178Z,16.50
2018-10-17T00:19:44.111Z,16.27
2018-10-17T00:22:13.038Z,15.60
2018-10-17T00:24:41.986Z,15.85
2018-10-17T00:27:10.905Z,16.52
2018-10-17T00:29:39.854Z,13.72
2018-10-17T00:32:08.776Z,12.70
2018-10-17T00:34:37.730Z,11.80
2018-10-17T00:37:06.652Z,11.53
2018-10-17T00:39:35.611Z,12.00
2018-10-17T00:42:04.557Z,12.40
2018-10-17T00:44:33.517Z,11.83
2018-10-17T00:47:02.495Z,12.65
2018-10-17T00:49:31.422Z,10.65
2018-10-17T00:52:00.354Z,11.70
2018-10-17T00:54:29.318Z,11.30
2018-10-17T00:56:58.239Z,11.12
2018-10-17T00:59:27.293Z,12.50
2018-10-17T01:01:56.227Z,10.50
2018-10-17T01:04:25.169Z,14.28
2018-10-17T01:06:54.128Z,9.88
2018-10-17T01:09:23.059Z,5.70
2018-10-17T01:11:52.011Z,9.03
2018-10-17T01:14:20.969Z,5.50
2018-10-17T01:16:49.954Z,4.72
2018-10-17T01:19:18.902Z,5.00
2018-10-17T01:21:47.869Z,6.35
2018-10-17T01:24:16.817Z,5.40
2018-10-17T01:26:45.781Z,7.37
2018-10-17T01:29:14.802Z,5.62
2018-10-17T01:31:43.705Z,5.40
2018-10-17T01:34:12.641Z,7.67
2018-10-17T01:36:41.617Z,8.70
2018-10-17T01:39:11.502Z,6.20
2018-10-17T01:41:40.491Z,6.20
2018-10-17T01:44:09.609Z,6.30
2018-10-17T01:46:38.569Z,7.35
2018-10-17T01:49:07.563Z,6.10
2018-10-17T01:51:36.510Z,7.47
2018-10-17T01:54:05.481Z,5.70
2018-10-17T01:56:34.442Z,6.05
2018-10-17T01:59:03.498Z,6.05
2018-10-17T02:01:32.397Z,7.20
2018-10-17T02:04:01.343Z,7.30
2018-10-17T02:06:30.306Z,6.33
2018-10-17T02:08:59.238Z,7.53
2018-10-17T02:11:28.199Z,6.75
2018-10-17T02:13:57.158Z,6.90
2018-10-17T02:16:26.114Z,6.65
2018-10-17T02:18:55.073Z,9.05
2018-10-17T02:21:24.002Z,10.70
2018-10-17T02:23:52.941Z,7.97
2018-10-17T02:26:21.885Z,10.05
2018-10-17T02:28:50.811Z,9.33
2018-10-17T02:31:19.869Z,10.10
2018-10-17T02:33:48.714Z,13.33
2018-10-17T02:36:17.630Z,12.55
2018-10-17T02:38:46.590Z,13.13
2018-10-17T02:41:15.537Z,14.55
2018-10-17T02:43:44.509Z,13.45
2018-10-17T02:46:13.454Z,13.95
2018-10-17T02:48:42.395Z,13.70
2018-10-17T02:51:11.325Z,13.05
2018-10-17T02:53:40.274Z,11.65
2018-10-17T02:56:09.201Z,11.30
2018-10-17T02:58:38.162Z,9.25
2018-10-17T03:01:07.165Z,8.48
2018-10-17T03:03:36.132Z,8.83
2018-10-17T03:06:05.087Z,12.68
2018-10-17T03:08:34.044Z,11.40
2018-10-17T03:11:02.994Z,10.40
2018-10-17T03:13:31.976Z,14.20
2018-10-17T03:16:00.882Z,12.07
2018-10-17T03:18:29.847Z,9.98
2018-10-17T03:20:58.778Z,7.20
2018-10-17T03:23:27.746Z,8.70
2018-10-17T03:25:56.688Z,8.35
2018-10-17T03:28:25.883Z,8.00
2018-10-17T03:30:54.816Z,7.97
2018-10-17T03:33:23.771Z,8.05
2018-10-17T03:35:52.720Z,8.08
2018-10-17T03:38:21.670Z,7.90
2018-10-17T03:40:50.595Z,7.62
2018-10-17T03:43:19.523Z,7.37
2018-10-17T03:45:48.448Z,7.20
2018-10-17T03:48:17.375Z,8.73
2018-10-17T03:50:46.290Z,8.23
2018-10-17T03:53:15.335Z,9.10
2018-10-17T03:55:44.192Z,9.60
2018-10-17T03:58:13.139Z,11.70
2018-10-17T04:00:42.079Z,10.25
2018-10-17T04:03:11.107Z,9.70
2018-10-17T04:05:39.995Z,10.70
2018-10-17T04:08:08.927Z,12.13
2018-10-17T04:10:37.870Z,14.60
2018-10-17T04:13:06.828Z,12.30
2018-10-17T04:15:35.797Z,11.85
2018-10-17T04:18:04.719Z,12.10
2018-10-17T04:20:33.702Z,10.82
2018-10-17T04:23:02.699Z,13.53
2018-10-17T04:25:31.606Z,12.80
2018-10-17T04:28:00.538Z,15.60
2018-10-17T04:30:29.482Z,14.13
2018-10-17T04:32:58.446Z,18.73
2018-10-17T04:35:27.398Z,17.75
2018-10-17T04:37:56.354Z,16.80
2018-10-17T04:40:25.299Z,17.87
2018-10-17T04:42:54.294Z,16.05
2018-10-17T04:45:23.198Z,13.30
2018-10-17T04:47:52.118Z,16.73
2018-10-17T04:50:21.074Z,13.45
2018-10-17T04:52:50.026Z,16.27
2018-10-17T04:55:19.127Z,13.67
2018-10-17T04:57:48.138Z,16.17
2018-10-17T05:00:17.162Z,15.35
2018-10-17T05:02:46.090Z,14.23
2018-10-17T05:05:15.131Z,17.17
2018-10-17T05:07:44.037Z,16.60
2018-10-17T05:10:12.982Z,20.20
2018-10-17T05:12:41.922Z,18.15
2018-10-17T05:15:10.866Z,15.20
2018-10-17T05:17:39.842Z,16.85
2018-10-17T05:20:08.818Z,17.75
2018-10-17T05:22:37.800Z,14.50
2018-10-17T05:25:07.529Z,13.55
2018-10-17T05:27:36.803Z,12.90
2018-10-17T05:30:06.947Z,56.90
2018-10-17T05:32:35.979Z,21.95
2018-10-17T05:35:05.565Z,20.12
2018-10-17T05:37:34.557Z,19.30
2018-10-17T05:40:03.550Z,18.45
2018-10-17T05:42:32.510Z,19.03
2018-10-17T05:45:01.459Z,17.40
2018-10-17T05:47:30.433Z,20.45
2018-10-17T05:49:59.421Z,19.45
2018-10-17T05:52:28.407Z,25.80
2018-10-17T05:54:57.368Z,18.10
2018-10-17T05:57:26.330Z,20.55
2018-10-17T05:59:55.286Z,27.60
2018-10-17T06:02:27.710Z,18.80
2018-10-17T06:04:56.641Z,16.93
2018-10-17T06:07:25.650Z,20.13
2018-10-17T06:09:54.612Z,20.40
2018-10-17T06:12:23.592Z,16.37
2018-10-17T06:14:52.543Z,17.92
2018-10-17T06:17:21.725Z,16.15
2018-10-17T06:19:50.766Z,15.37
2018-10-17T06:22:19.773Z,18.07
2018-10-17T06:24:48.765Z,17.57
2018-10-17T06:27:17.746Z,18.40
2018-10-17T06:29:46.718Z,18.43
2018-10-17T06:32:15.725Z,17.17
2018-10-17T06:34:44.702Z,16.48
2018-10-17T06:37:13.787Z,16.85
2018-10-17T06:39:42.705Z,17.37
2018-10-17T06:42:11.701Z,16.97
2018-10-17T06:44:40.653Z,18.10
2018-10-17T06:47:09.769Z,16.93
2018-10-17T06:49:38.639Z,16.40
2018-10-17T06:52:07.590Z,21.03
2018-10-17T06:54:36.851Z,19.37
2018-10-17T06:57:06.090Z,18.30
2018-10-17T06:59:35.070Z,23.00
2018-10-17T07:02:04.248Z,19.60
2018-10-17T07:04:33.257Z,19.37
2018-10-17T07:07:02.306Z,17.30
2018-10-17T07:09:31.191Z,18.50
2018-10-17T07:12:00.142Z,18.93
2018-10-17T07:14:29.934Z,17.90
2018-10-17T07:16:59.890Z,23.75
2018-10-17T07:19:29.026Z,19.25
2018-10-17T07:21:58.303Z,20.72
2018-10-17T07:24:27.290Z,26.37
2018-10-17T07:26:56.319Z,23.70
2018-10-17T07:29:25.421Z,25.30
2018-10-17T07:31:54.258Z,25.93
2018-10-17T07:34:23.243Z,22.07
2018-10-17T07:36:52.235Z,23.23
2018-10-17T07:39:21.356Z,26.65
2018-10-17T07:41:50.195Z,25.32
2018-10-17T07:44:19.190Z,24.40
2018-10-17T07:46:48.219Z,23.87
2018-10-17T07:49:17.239Z,23.80
2018-10-17T07:51:46.188Z,23.45
2018-10-17T07:54:15.335Z,28.57
2018-10-17T07:56:44.130Z,29.00
2018-10-17T07:59:13.111Z,24.60
2018-10-17T08:01:42.067Z,23.30
2018-10-17T08:04:11.035Z,22.57
2018-10-17T08:06:40.590Z,25.08
2018-10-17T08:09:10.610Z,26.60
2018-10-17T08:11:39.876Z,26.82
2018-10-17T08:14:09.056Z,28.20
2018-10-17T08:16:37.989Z,27.82
2018-10-17T08:19:06.955Z,27.95
2018-10-17T08:21:35.919Z,25.97
2018-10-17T08:24:04.907Z,30.60
2018-10-17T08:26:33.831Z,31.20
2018-10-17T08:29:02.770Z,31.95
2018-10-17T08:31:31.710Z,30.27
2018-10-17T08:34:00.710Z,31.60
2018-10-17T08:36:30.072Z,34.77
2018-10-17T08:38:58.627Z,30.77
2018-10-17T08:41:27.599Z,33.33
2018-10-17T08:43:56.583Z,37.57
2018-10-17T08:46:25.532Z,32.75
2018-10-17T08:48:54.466Z,40.12
2018-10-17T08:51:23.410Z,33.20
2018-10-17T08:53:52.339Z,37.05
2018-10-17T08:56:21.320Z,35.10
2018-10-17T08:58:50.251Z,33.58
2018-10-17T09:01:19.207Z,32.40
2018-10-17T09:03:48.139Z,34.97
2018-10-17T09:06:17.156Z,36.90
2018-10-17T09:08:46.058Z,35.37
2018-10-17T09:11:15.022Z,31.62
2018-10-17T09:13:43.966Z,29.85
2018-10-17T09:16:13.050Z,32.57
2018-10-17T09:18:41.903Z,36.77
2018-10-17T09:21:11.089Z,40.80
2018-10-17T09:23:39.794Z,38.13
2018-10-17T09:26:08.751Z,37.83
2018-10-17T09:28:37.670Z,31.43
2018-10-17T09:31:06.732Z,30.20
2018-10-17T09:33:35.646Z,32.90
2018-10-17T09:36:04.881Z,29.52
2018-10-17T09:38:33.791Z,30.93
2018-10-17T09:41:03.251Z,28.57
2018-10-17T09:43:32.199Z,28.70
2018-10-17T09:46:01.161Z,34.97
2018-10-17T09:48:30.098Z,31.33
2018-10-17T09:50:59.034Z,29.77
2018-10-17T09:53:28.134Z,32.10
2018-10-17T09:55:56.972Z,31.37
2018-10-17T09:58:25.922Z,30.72
2018-10-17T10:01:00.111Z,31.52
2018-10-17T10:03:29.046Z,26.30
2018-10-17T10:05:58.001Z,29.80
2018-10-17T10:08:27.154Z,25.00
2018-10-17T10:10:56.117Z,23.80
2018-10-17T10:13:25.056Z,25.23
2018-10-17T10:15:54.075Z,24.47
2018-10-17T10:18:23.023Z,28.10
2018-10-17T10:20:51.957Z,28.97
2018-10-17T10:23:20.912Z,27.42
2018-10-17T10:25:49.845Z,26.62
2018-10-17T10:28:18.928Z,27.87
2018-10-17T10:30:47.769Z,24.10
2018-10-17T10:33:16.709Z,24.13
2018-10-17T10:35:45.698Z,22.58
2018-10-17T10:38:14.655Z,18.85
2018-10-17T10:40:43.628Z,18.33
2018-10-17T10:43:12.567Z,17.20
2018-10-17T10:45:41.594Z,20.80
2018-10-17T10:48:10.648Z,17.30
2018-10-17T10:50:39.519Z,17.60
2018-10-17T10:53:08.471Z,18.90
2018-10-17T10:55:37.431Z,17.73
2018-10-17T10:58:06.499Z,19.50
2018-10-17T11:00:35.375Z,18.25
2018-10-17T11:03:04.353Z,21.82
2018-10-17T11:05:33.486Z,21.47
2018-10-17T11:08:02.285Z,20.65
2018-10-17T11:10:31.306Z,18.87
2018-10-17T11:13:00.470Z,18.50
2018-10-17T11:15:29.437Z,26.60
2018-10-17T11:17:58.450Z,20.40
2018-10-17T11:20:27.411Z,18.70
2018-10-17T11:22:56.372Z,20.90
2018-10-17T11:25:25.358Z,17.70
2018-10-17T11:27:54.311Z,12.33
2018-10-17T11:30:23.266Z,11.63
2018-10-17T11:32:52.316Z,15.30
2018-10-17T11:35:21.270Z,16.10
2018-10-17T11:37:50.251Z,11.83
2018-10-17T11:40:19.299Z,12.73
2018-10-17T11:42:48.273Z,15.60
2018-10-17T11:45:17.331Z,29.77
2018-10-17T11:47:46.333Z,10.97
2018-10-17T11:50:15.251Z,12.25
2018-10-17T11:52:44.205Z,14.30
2018-10-17T11:55:13.191Z,10.35
2018-10-17T11:57:42.143Z,12.88
2018-10-17T12:00:12.554Z,10.67
2018-10-17T12:02:41.524Z,14.68
2018-10-17T12:05:13.705Z,12.20
2018-10-17T12:07:42.571Z,12.53
2018-10-17T12:10:11.537Z,12.25
2018-10-17T12:12:40.487Z,13.40
2018-10-17T12:15:13.599Z,10.37
2018-10-17T12:17:42.613Z,9.90
2018-10-17T12:20:13.082Z,12.85
2018-10-17T12:22:42.866Z,10.10
2018-10-17T12:25:12.305Z,10.70
2018-10-17T12:27:41.302Z,9.73
2018-10-17T12:30:12.723Z,13.80
2018-10-17T12:32:41.826Z,12.20
2018-10-17T12:35:11.091Z,13.20
2018-10-17T12:37:40.010Z,8.73
2018-10-17T12:40:10.642Z,9.93
2018-10-17T12:42:39.555Z,10.03
2018-10-17T12:45:08.583Z,9.70
2018-10-17T12:47:37.559Z,8.75
2018-10-17T12:50:07.607Z,8.40
2018-10-17T12:52:36.696Z,10.33
2018-10-17T12:55:06.645Z,9.30
2018-10-17T12:57:35.612Z,11.20
2018-10-17T13:00:04.732Z,9.75
2018-10-17T13:02:33.699Z,16.30
2018-10-17T13:05:02.729Z,9.98
2018-10-17T13:07:31.708Z,8.98
2018-10-17T13:10:00.711Z,8.88
2018-10-17T13:12:29.702Z,9.37
2018-10-17T13:14:58.723Z,8.87
2018-10-17T13:17:27.683Z,7.03
2018-10-17T13:19:56.623Z,9.80
2018-10-17T13:22:25.691Z,8.30
2018-10-17T13:24:54.672Z,10.80
2018-10-17T13:27:23.634Z,10.10
2018-10-17T13:29:52.776Z,7.62
2018-10-17T13:32:21.738Z,9.50
2018-10-17T13:34:52.509Z,9.28
2018-10-17T13:37:21.487Z,10.80
2018-10-17T13:39:50.588Z,10.53
2018-10-17T13:42:19.615Z,11.80
2018-10-17T13:44:49.686Z,10.00
2018-10-17T13:47:18.702Z,10.70
2018-10-17T13:49:47.770Z,9.73
2018-10-17T13:52:16.924Z,10.30
2018-10-17T13:54:45.916Z,9.33
2018-10-17T13:57:14.886Z,8.63
2018-10-17T13:59:44.140Z,8.95
2018-10-17T14:02:13.583Z,11.10
2018-10-17T14:04:42.627Z,10.03
2018-10-17T14:07:13.273Z,10.73
2018-10-17T14:09:42.234Z,8.63
2018-10-17T14:12:11.293Z,12.83
2018-10-17T14:14:40.186Z,7.00
2018-10-17T14:17:09.243Z,10.90
2018-10-17T14:19:38.282Z,8.13
2018-10-17T14:22:08.017Z,9.23
2018-10-17T14:24:37.016Z,9.83
2018-10-17T14:27:06.554Z,9.63
2018-10-17T14:29:35.580Z,8.50
2018-10-17T14:32:04.839Z,7.10
2018-10-17T14:34:34.167Z,8.70
2018-10-17T14:37:03.167Z,15.65
2018-10-17T14:39:32.246Z,10.20
2018-10-17T14:42:01.221Z,11.18
2018-10-17T14:44:30.235Z,13.77
2018-10-17T14:46:59.238Z,14.20
2018-10-17T14:49:28.196Z,12.18
2018-10-17T14:51:58.211Z,9.90
2018-10-17T14:54:27.259Z,12.10
2018-10-17T14:56:56.227Z,15.80
2018-10-17T14:59:25.401Z,9.37
2018-10-17T15:01:54.711Z,13.13
2018-10-17T15:04:23.954Z,12.93
2018-10-17T15:06:52.910Z,12.23
2018-10-17T15:09:21.906Z,10.40
2018-10-17T15:11:51.884Z,16.47
2018-10-17T15:14:21.459Z,11.57
2018-10-17T15:16:50.417Z,10.03
2018-10-17T15:19:19.422Z,15.00
2018-10-17T15:21:48.359Z,12.58
2018-10-17T15:24:17.482Z,11.70
2018-10-17T15:26:46.402Z,10.40
2018-10-17T15:29:15.362Z,11.85
2018-10-17T15:31:44.319Z,15.48
2018-10-17T15:34:14.259Z,11.22
2018-10-17T15:36:43.209Z,14.78
2018-10-17T15:39:12.594Z,23.00
2018-10-17T15:41:41.567Z,17.20
2018-10-17T15:44:10.563Z,17.00
2018-10-17T15:46:39.507Z,15.80
2018-10-17T15:49:08.503Z,13.67
2018-10-17T15:51:37.467Z,18.87
2018-10-17T15:54:06.518Z,12.20
2018-10-17T15:56:35.451Z,13.27
2018-10-17T15:59:05.544Z,12.70
2018-10-17T16:01:34.492Z,17.90
2018-10-17T16:04:03.477Z,14.90
2018-10-17T16:06:33.434Z,15.47
2018-10-17T16:09:05.445Z,11.30
2018-10-17T16:11:39.881Z,14.87
2018-10-17T16:14:10.245Z,16.40
2018-10-17T16:16:43.966Z,18.70
2018-10-17T16:19:14.899Z,18.12
2018-10-17T16:21:46.389Z,15.80
2018-10-17T16:24:16.879Z,14.87
2018-10-17T16:26:49.423Z,16.63
2018-10-17T16:29:20.544Z,17.17
2018-10-17T16:31:50.491Z,20.30
2018-10-17T16:34:21.086Z,20.30
2018-10-17T16:36:52.608Z,16.17
2018-10-17T16:39:22.595Z,18.37
2018-10-17T16:41:52.409Z,19.93
2018-10-17T16:44:22.508Z,19.50
2018-10-17T16:46:53.864Z,20.10
2018-10-17T16:49:25.012Z,20.23
2018-10-17T16:51:55.575Z,20.57
2018-10-17T16:54:25.892Z,18.17
2018-10-17T16:56:56.793Z,19.40
2018-10-17T16:59:28.499Z,17.83
2018-10-17T17:01:58.545Z,18.20
2018-10-17T17:04:28.535Z,20.03
2018-10-17T17:06:58.754Z,19.55
2018-10-17T17:09:30.304Z,19.40
2018-10-17T17:12:02.085Z,19.50
2018-10-17T17:14:33.182Z,19.47
2018-10-17T17:17:05.812Z,21.67
2018-10-17T17:19:36.417Z,22.00
2018-10-17T17:22:08.521Z,31.70
2018-10-17T17:24:39.734Z,23.07
2018-10-17T17:27:11.138Z,19.92
2018-10-17T17:29:41.474Z,23.67
2018-10-17T17:32:11.437Z,21.80
2018-10-17T17:34:45.852Z,25.82
2018-10-17T17:37:16.487Z,21.77
2018-10-17T17:39:46.488Z,21.25
2018-10-17T17:42:19.566Z,22.00
2018-10-17T17:44:52.644Z,23.57
2018-10-17T17:47:23.114Z,27.40
2018-10-17T17:49:53.090Z,25.50
2018-10-17T17:52:23.621Z,23.15
2018-10-17T17:54:54.455Z,25.48
2018-10-17T17:57:25.109Z,23.80
2018-10-17T17:59:55.039Z,27.47
2018-10-17T18:02:26.867Z,35.70
2018-10-17T18:04:57.417Z,24.70
2018-10-17T18:07:28.432Z,25.43
2018-10-17T18:09:58.921Z,27.17
2018-10-17T18:12:31.048Z,25.62
2018-10-17T18:15:01.935Z,27.70
2018-10-17T18:17:32.646Z,24.87
2018-10-17T18:20:03.210Z,21.75
2018-10-17T18:22:33.511Z,21.93
2018-10-17T18:25:03.514Z,20.10
2018-10-17T18:27:34.352Z,27.93
2018-10-17T18:30:04.470Z,20.23
2018-10-17T18:32:34.443Z,19.33
2018-10-17T18:35:04.365Z,19.75
2018-10-17T18:37:37.325Z,22.55
2018-10-17T18:40:09.013Z,25.76
2018-10-17T18:42:40.965Z,21.42
2018-10-17T18:45:12.432Z,17.57
2018-10-17T18:47:42.496Z,17.37
2018-10-17T18:50:12.435Z,18.37
2018-10-17T18:52:43.346Z,20.48
2018-10-17T18:55:13.165Z,18.52
2018-10-17T18:57:42.925Z,20.90
2018-10-17T19:00:13.449Z,24.87
2018-10-17T19:02:43.651Z,18.35
2018-10-17T19:05:13.554Z,21.90
2018-10-17T19:07:44.105Z,19.37
2018-10-17T19:10:14.017Z,18.97
2018-10-17T19:12:43.887Z,20.23
2018-10-17T19:15:14.373Z,25.75
2018-10-17T19:17:44.703Z,21.93
2018-10-17T19:20:14.870Z,24.27
2018-10-17T19:22:44.682Z,17.73
2018-10-17T19:25:14.508Z,21.35
2018-10-17T19:27:45.267Z,27.52
2018-10-17T19:30:15.235Z,22.80
2018-10-17T19:32:45.645Z,28.20
2018-10-17T19:35:15.832Z,25.55
2018-10-17T19:37:45.902Z,23.63
2018-10-17T19:40:16.229Z,23.15
2018-10-17T19:42:46.484Z,25.17
2018-10-17T19:45:17.476Z,22.32
2018-10-17T19:47:48.421Z,21.30
2018-10-17T19:50:19.000Z,24.67
2018-10-17T19:52:48.891Z,28.40
2018-10-17T19:55:19.727Z,31.82
2018-10-17T19:57:49.632Z,33.42
2018-10-17T20:00:20.094Z,30.05
2018-10-17T20:02:51.526Z,27.37
2018-10-17T20:05:24.856Z,30.55
2018-10-17T20:07:55.536Z,28.73
2018-10-17T20:10:25.484Z,30.03
2018-10-17T20:12:55.501Z,42.40
2018-10-17T20:15:25.909Z,35.53
2018-10-17T20:17:56.951Z,42.50
2018-10-17T20:20:29.261Z,36.47
2018-10-17T20:22:59.702Z,40.10
2018-10-17T20:25:30.607Z,36.10
2018-10-17T20:28:03.211Z,32.97
2018-10-17T20:30:34.501Z,35.10
2018-10-17T20:33:05.271Z,38.93
2018-10-17T20:35:36.722Z,40.40
2018-10-17T20:38:07.319Z,35.52
2018-10-17T20:40:38.003Z,38.50
2018-10-17T20:43:08.065Z,41.70
2018-10-17T20:45:38.802Z,40.40
2018-10-17T20:48:08.675Z,39.57
2018-10-17T20:50:38.746Z,48.73
2018-10-17T20:53:09.743Z,43.30
2018-10-17T20:55:43.099Z,41.07
2018-10-17T20:58:13.160Z,45.83
2018-10-17T21:00:43.155Z,47.13
2018-10-17T21:03:13.893Z,41.80
2018-10-17T21:05:44.975Z,41.65
2018-10-17T21:08:15.014Z,43.35
2018-10-17T21:10:47.534Z,44.83
2018-10-17T21:13:17.391Z,44.88
2018-10-17T21:15:47.830Z,44.67
2018-10-17T21:18:17.914Z,52.50
2018-10-17T21:20:48.068Z,49.50
2018-10-17T21:23:17.965Z,50.57
2018-10-17T21:25:48.273Z,49.45
2018-10-17T21:28:20.074Z,49.40
2018-10-17T21:30:50.463Z,49.53
2018-10-17T21:33:23.089Z,53.67
2018-10-17T21:35:54.224Z,57.05
2018-10-17T21:38:24.784Z,55.93
2018-10-17T21:40:54.597Z,57.47
2018-10-17T21:43:25.154Z,63.73
2018-10-17T21:45:57.144Z,57.03
2018-10-17T21:48:28.338Z,66.15
2018-10-17T21:50:58.956Z,69.75
2018-10-17T21:53:31.255Z,67.25
2018-10-17T21:56:01.739Z,72.12
2018-10-17T21:58:32.427Z,69.23
2018-10-17T22:01:04.457Z,70.25
2018-10-17T22:03:33.530Z,60.50
2018-10-17T22:06:02.536Z,65.63
2018-10-17T22:08:31.483Z,66.53
2018-10-17T22:11:00.442Z,64.27
2018-10-17T22:13:29.371Z,66.20
2018-10-17T22:15:58.328Z,68.92
2018-10-17T22:18:27.281Z,62.85
2018-10-17T22:20:56.201Z,60.92
2018-10-17T22:23:25.155Z,61.88
2018-10-17T22:25:54.155Z,62.23
2018-10-17T22:28:23.070Z,68.15
2018-10-17T22:30:52.003Z,58.40
2018-10-17T22:33:20.955Z,67.95
2018-10-17T22:35:49.877Z,61.58
2018-10-17T22:38:18.824Z,64.00
2018-10-17T22:40:47.751Z,59.95
2018-10-17T22:43:16.711Z,64.35
2018-10-17T22:45:45.627Z,55.40
2018-10-17T22:48:14.586Z,51.85
2018-10-17T22:50:43.531Z,41.98
2018-10-17T22:53:12.555Z,36.13
2018-10-17T22:55:41.474Z,24.45
2018-10-17T22:58:10.435Z,24.70
2018-10-17T23:00:39.370Z,26.83
2018-10-17T23:03:08.366Z,27.42
2018-10-17T23:05:37.314Z,32.65
2018-10-17T23:08:06.256Z,33.03
2018-10-17T23:10:35.203Z,40.38
2018-10-17T23:13:04.535Z,44.85
2018-10-17T23:15:33.471Z,42.62
2018-10-17T23:18:02.450Z,48.85
2018-10-17T23:20:31.386Z,49.20
2018-10-17T23:23:00.331Z,51.42
2018-10-17T23:25:29.254Z,55.50
2018-10-17T23:27:58.196Z,52.90
2018-10-17T23:30:27.151Z,59.70
2018-10-17T23:32:56.110Z,59.70
2018-10-17T23:35:25.022Z,63.35
2018-10-17T23:37:53.972Z,63.70
2018-10-17T23:40:22.910Z,57.98
2018-10-17T23:42:51.859Z,50.20
2018-10-17T23:45:20.782Z,47.35
2018-10-17T23:47:49.741Z,38.15
2018-10-17T23:50:18.782Z,36.28
2018-10-17T23:52:47.674Z,29.15
2018-10-17T23:55:16.610Z,32.15
2018-10-17T23:57:45.550Z,35.13
